This is the latest recevied weather packets stored in our database for station/object HS6TUX-4. If no packets are shown the sender has not sent any weather packets the latest 10 day(s).
| Time | Temp. | Humidity | Pressure | Rain* | Wind** | Luminosity | Snow |
|---|---|---|---|---|---|---|---|
| 1777904638 | 31.11° C | 99% | 728 hPa | - | - | 0 W/m² | - |
| 1777903710 | 31.11° C | 99% | 728 hPa | - | - | 0 W/m² | - |
| 1777902782 | 31.11° C | 99% | 729 hPa | - | - | 0 W/m² | - |
| 1777901853 | 31.11° C | 99% | 729 hPa | - | - | 0 W/m² | - |
| 1777900925 | 31.11° C | 99% | 729 hPa | - | - | 0 W/m² | - |
| 1777899997 | 31.11° C | 99% | 728 hPa | - | - | 0 W/m² | - |
| 1777899069 | 31.11° C | 99% | 729 hPa | - | - | 0 W/m² | - |
| 1777898141 | 31.11° C | 99% | 729 hPa | - | - | 0 W/m² | - |
| 1777897212 | 31.11° C | 99% | 728 hPa | - | - | 0 W/m² | - |
| 1777896284 | 31.67° C | 99% | 729 hPa | - | - | 0 W/m² | - |
| 1777895953 | 31.67° C | 99% | 729 hPa | - | - | 0 W/m² | - |
| 1777895025 | 31.67° C | 99% | 729 hPa | - | - | 0 W/m² | - |
| 1777894097 | 31.67° C | 99% | 729 hPa | - | - | 1 W/m² | - |
| 1777893169 | 31.67° C | 99% | 729 hPa | - | - | 3 W/m² | - |
| 1777892241 | 32.22° C | 99% | 730 hPa | - | - | 6 W/m² | - |
| 1777891313 | 34.44° C | 95% | 732 hPa | - | - | 9 W/m² | - |
| 1777890384 | 38.33° C | 81% | 736 hPa | - | - | 11 W/m² | - |
| 1777889456 | 38.89° C | 74% | 737 hPa | - | - | 12 W/m² | - |
| 1777888528 | 40° C | 70% | 738 hPa | - | - | 13 W/m² | - |
| 1777887599 | 39.44° C | 75% | 738 hPa | - | - | 15 W/m² | - |
| 1777886671 | 40° C | 74% | 738 hPa | - | - | 16 W/m² | - |
| 1777885743 | 40° C | 76% | 739 hPa | - | - | 17 W/m² | - |
| 1777884815 | 40.56° C | 73% | 739 hPa | - | - | 19 W/m² | - |
| 1777883887 | 41.11° C | 73% | 740 hPa | - | - | 21 W/m² | - |
| 1777882959 | 42.22° C | 71% | 741 hPa | - | - | 25 W/m² | - |
* Rain since midnight (hover to see other rain measurements)
** Current wind speed in m/s (hover to see current wind gust speed)